sensor_id;sensor_type;location;lat;lon;timestamp;P1;durP1;ratioP1;P2;durP2;ratioP2
7295;SDS011;40758;54.038;11.684;2023-11-19T00:00:08;9.23;;;4.05;;
7295;SDS011;40758;54.038;11.684;2023-11-19T00:02:39;7.25;;;3.35;;
7295;SDS011;40758;54.038;11.684;2023-11-19T00:05:08;8.70;;;4.55;;
7295;SDS011;40758;54.038;11.684;2023-11-19T00:07:39;11.00;;;4.72;;
7295;SDS011;40758;54.038;11.684;2023-11-19T00:10:10;9.73;;;3.40;;
7295;SDS011;40758;54.038;11.684;2023-11-19T00:12:39;4.45;;;2.22;;
7295;SDS011;40758;54.038;11.684;2023-11-19T00:15:08;8.93;;;4.75;;
7295;SDS011;40758;54.038;11.684;2023-11-19T00:17:38;4.53;;;1.98;;
7295;SDS011;40758;54.038;11.684;2023-11-19T00:20:12;5.65;;;3.22;;
7295;SDS011;40758;54.038;11.684;2023-11-19T00:22:40;6.78;;;3.15;;
7295;SDS011;40758;54.038;11.684;2023-11-19T00:25:13;8.43;;;4.05;;
7295;SDS011;40758;54.038;11.684;2023-11-19T00:27:40;7.35;;;4.15;;
7295;SDS011;40758;54.038;11.684;2023-11-19T00:30:07;6.63;;;3.10;;
7295;SDS011;40758;54.038;11.684;2023-11-19T00:32:37;5.38;;;3.10;;
7295;SDS011;40758;54.038;11.684;2023-11-19T00:35:06;7.45;;;3.00;;
7295;SDS011;40758;54.038;11.684;2023-11-19T00:37:34;5.85;;;2.85;;
7295;SDS011;40758;54.038;11.684;2023-11-19T00:40:00;8.00;;;3.72;;
7295;SDS011;40758;54.038;11.684;2023-11-19T00:42:27;11.70;;;3.83;;
7295;SDS011;40758;54.038;11.684;2023-11-19T00:44:54;6.55;;;4.78;;
7295;SDS011;40758;54.038;11.684;2023-11-19T00:47:21;6.68;;;2.90;;
7295;SDS011;40758;54.038;11.684;2023-11-19T00:49:48;6.68;;;3.05;;
7295;SDS011;40758;54.038;11.684;2023-11-19T00:52:16;6.78;;;2.58;;
7295;SDS011;40758;54.038;11.684;2023-11-19T00:57:10;6.07;;;3.58;;
7295;SDS011;40758;54.038;11.684;2023-11-19T00:59:37;7.07;;;2.90;;
7295;SDS011;40758;54.038;11.684;2023-11-19T01:02:04;6.60;;;3.92;;
7295;SDS011;40758;54.038;11.684;2023-11-19T01:04:33;7.00;;;3.40;;
7295;SDS011;40758;54.038;11.684;2023-11-19T01:07:03;6.55;;;3.10;;
7295;SDS011;40758;54.038;11.684;2023-11-19T01:09:31;6.10;;;2.72;;
7295;SDS011;40758;54.038;11.684;2023-11-19T01:12:01;8.52;;;3.72;;
7295;SDS011;40758;54.038;11.684;2023-11-19T01:14:29;6.15;;;2.83;;
7295;SDS011;40758;54.038;11.684;2023-11-19T01:16:56;6.82;;;3.70;;
7295;SDS011;40758;54.038;11.684;2023-11-19T01:19:23;10.82;;;5.47;;
7295;SDS011;40758;54.038;11.684;2023-11-19T01:21:50;5.32;;;2.72;;
7295;SDS011;40758;54.038;11.684;2023-11-19T01:24:17;9.02;;;3.80;;
7295;SDS011;40758;54.038;11.684;2023-11-19T01:26:44;8.48;;;3.72;;
7295;SDS011;40758;54.038;11.684;2023-11-19T01:29:12;3.08;;;1.05;;
7295;SDS011;40758;54.038;11.684;2023-11-19T01:31:43;8.48;;;3.40;;
7295;SDS011;40758;54.038;11.684;2023-11-19T01:34:11;9.95;;;5.18;;
7295;SDS011;40758;54.038;11.684;2023-11-19T01:36:38;5.97;;;3.60;;
7295;SDS011;40758;54.038;11.684;2023-11-19T01:39:05;6.55;;;3.72;;
7295;SDS011;40758;54.038;11.684;2023-11-19T01:41:36;11.35;;;6.57;;
7295;SDS011;40758;54.038;11.684;2023-11-19T01:44:08;8.70;;;3.45;;
7295;SDS011;40758;54.038;11.684;2023-11-19T01:46:35;7.70;;;3.22;;
7295;SDS011;40758;54.038;11.684;2023-11-19T01:49:02;4.63;;;2.13;;
7295;SDS011;40758;54.038;11.684;2023-11-19T01:51:31;6.85;;;3.17;;
7295;SDS011;40758;54.038;11.684;2023-11-19T01:53:58;10.50;;;5.10;;
7295;SDS011;40758;54.038;11.684;2023-11-19T01:56:25;8.80;;;5.15;;
7295;SDS011;40758;54.038;11.684;2023-11-19T01:58:57;4.95;;;2.67;;
7295;SDS011;40758;54.038;11.684;2023-11-19T02:01:24;6.53;;;3.63;;
7295;SDS011;40758;54.038;11.684;2023-11-19T02:03:51;5.88;;;2.80;;
7295;SDS011;40758;54.038;11.684;2023-11-19T02:06:18;4.88;;;2.42;;
7295;SDS011;40758;54.038;11.684;2023-11-19T02:08:45;4.82;;;2.97;;
7295;SDS011;40758;54.038;11.684;2023-11-19T02:11:12;7.20;;;2.70;;
7295;SDS011;40758;54.038;11.684;2023-11-19T02:13:39;5.68;;;3.15;;
7295;SDS011;40758;54.038;11.684;2023-11-19T02:16:07;10.52;;;3.90;;
7295;SDS011;40758;54.038;11.684;2023-11-19T02:18:38;7.20;;;5.10;;
7295;SDS011;40758;54.038;11.684;2023-11-19T02:21:05;6.90;;;4.60;;
7295;SDS011;40758;54.038;11.684;2023-11-19T02:23:32;5.55;;;3.13;;
7295;SDS011;40758;54.038;11.684;2023-11-19T02:28:28;11.32;;;8.23;;
7295;SDS011;40758;54.038;11.684;2023-11-19T02:30:55;6.70;;;3.78;;
7295;SDS011;40758;54.038;11.684;2023-11-19T02:33:25;8.70;;;4.88;;
7295;SDS011;40758;54.038;11.684;2023-11-19T02:35:52;6.72;;;3.30;;
7295;SDS011;40758;54.038;11.684;2023-11-19T02:38:18;6.93;;;2.83;;
7295;SDS011;40758;54.038;11.684;2023-11-19T02:40:45;5.57;;;3.00;;
7295;SDS011;40758;54.038;11.684;2023-11-19T02:43:12;9.50;;;4.53;;
7295;SDS011;40758;54.038;11.684;2023-11-19T02:45:39;8.63;;;4.90;;
7295;SDS011;40758;54.038;11.684;2023-11-19T02:48:06;6.15;;;2.60;;
7295;SDS011;40758;54.038;11.684;2023-11-19T02:50:33;8.77;;;3.88;;
7295;SDS011;40758;54.038;11.684;2023-11-19T02:53:00;6.90;;;3.28;;
7295;SDS011;40758;54.038;11.684;2023-11-19T02:55:27;7.97;;;5.07;;
7295;SDS011;40758;54.038;11.684;2023-11-19T02:57:56;6.40;;;4.47;;
7295;SDS011;40758;54.038;11.684;2023-11-19T03:00:26;6.60;;;3.40;;
7295;SDS011;40758;54.038;11.684;2023-11-19T03:03:02;7.95;;;4.47;;
7295;SDS011;40758;54.038;11.684;2023-11-19T03:05:45;7.68;;;5.10;;
7295;SDS011;40758;54.038;11.684;2023-11-19T03:08:15;8.68;;;4.55;;
7295;SDS011;40758;54.038;11.684;2023-11-19T03:10:45;10.32;;;4.38;;
7295;SDS011;40758;54.038;11.684;2023-11-19T03:13:13;6.53;;;3.97;;
7295;SDS011;40758;54.038;11.684;2023-11-19T03:15:47;9.00;;;5.30;;
7295;SDS011;40758;54.038;11.684;2023-11-19T03:18:14;6.70;;;3.22;;
7295;SDS011;40758;54.038;11.684;2023-11-19T03:20:40;6.25;;;3.25;;
7295;SDS011;40758;54.038;11.684;2023-11-19T03:23:07;6.93;;;4.50;;
7295;SDS011;40758;54.038;11.684;2023-11-19T03:25:34;7.53;;;5.07;;
7295;SDS011;40758;54.038;11.684;2023-11-19T03:28:03;6.53;;;4.85;;
7295;SDS011;40758;54.038;11.684;2023-11-19T03:30:30;10.90;;;5.70;;
7295;SDS011;40758;54.038;11.684;2023-11-19T03:33:01;8.35;;;6.35;;
7295;SDS011;40758;54.038;11.684;2023-11-19T03:35:28;6.90;;;4.63;;
7295;SDS011;40758;54.038;11.684;2023-11-19T03:37:55;6.10;;;3.40;;
7295;SDS011;40758;54.038;11.684;2023-11-19T03:40:22;5.30;;;3.15;;
7295;SDS011;40758;54.038;11.684;2023-11-19T03:42:50;8.57;;;5.03;;
7295;SDS011;40758;54.038;11.684;2023-11-19T03:45:17;7.78;;;3.35;;
7295;SDS011;40758;54.038;11.684;2023-11-19T03:47:44;4.72;;;2.45;;
7295;SDS011;40758;54.038;11.684;2023-11-19T03:50:10;5.13;;;3.55;;
7295;SDS011;40758;54.038;11.684;2023-11-19T03:52:37;3.28;;;1.98;;
7295;SDS011;40758;54.038;11.684;2023-11-19T03:55:07;0.80;;;0.73;;
7295;SDS011;40758;54.038;11.684;2023-11-19T03:57:35;0.65;;;0.40;;
7295;SDS011;40758;54.038;11.684;2023-11-19T04:00:02;2.22;;;1.55;;
7295;SDS011;40758;54.038;11.684;2023-11-19T04:02:36;0.85;;;0.70;;
7295;SDS011;40758;54.038;11.684;2023-11-19T04:05:03;0.63;;;0.57;;
7295;SDS011;40758;54.038;11.684;2023-11-19T04:07:31;0.55;;;0.32;;
7295;SDS011;40758;54.038;11.684;2023-11-19T04:09:58;0.77;;;0.75;;
7295;SDS011;40758;54.038;11.684;2023-11-19T04:12:26;0.85;;;0.85;;
7295;SDS011;40758;54.038;11.684;2023-11-19T04:14:53;1.05;;;1.05;;
7295;SDS011;40758;54.038;11.684;2023-11-19T04:17:22;0.60;;;0.50;;
7295;SDS011;40758;54.038;11.684;2023-11-19T04:19:49;0.52;;;0.38;;
7295;SDS011;40758;54.038;11.684;2023-11-19T04:22:16;0.55;;;0.43;;
7295;SDS011;40758;54.038;11.684;2023-11-19T04:24:43;0.98;;;0.98;;
7295;SDS011;40758;54.038;11.684;2023-11-19T04:29:39;0.40;;;0.20;;
7295;SDS011;40758;54.038;11.684;2023-11-19T04:32:06;0.50;;;0.32;;
7295;SDS011;40758;54.038;11.684;2023-11-19T04:34:33;0.75;;;0.52;;
7295;SDS011;40758;54.038;11.684;2023-11-19T04:37:00;0.60;;;0.40;;
7295;SDS011;40758;54.038;11.684;2023-11-19T04:39:33;0.65;;;0.43;;
7295;SDS011;40758;54.038;11.684;2023-11-19T04:42:00;0.63;;;0.40;;
7295;SDS011;40758;54.038;11.684;2023-11-19T04:44:27;1.38;;;1.27;;
7295;SDS011;40758;54.038;11.684;2023-11-19T04:46:53;0.75;;;0.65;;
7295;SDS011;40758;54.038;11.684;2023-11-19T04:49:21;0.40;;;0.32;;
7295;SDS011;40758;54.038;11.684;2023-11-19T04:51:48;0.60;;;0.30;;
7295;SDS011;40758;54.038;11.684;2023-11-19T04:54:14;0.80;;;0.70;;
7295;SDS011;40758;54.038;11.684;2023-11-19T04:56:44;0.75;;;0.70;;
7295;SDS011;40758;54.038;11.684;2023-11-19T04:59:11;1.58;;;1.55;;
7295;SDS011;40758;54.038;11.684;2023-11-19T05:01:38;0.77;;;0.57;;
7295;SDS011;40758;54.038;11.684;2023-11-19T05:04:05;0.52;;;0.35;;
7295;SDS011;40758;54.038;11.684;2023-11-19T05:06:34;0.60;;;0.45;;
7295;SDS011;40758;54.038;11.684;2023-11-19T05:09:01;0.65;;;0.43;;
7295;SDS011;40758;54.038;11.684;2023-11-19T05:11:32;0.82;;;0.60;;
7295;SDS011;40758;54.038;11.684;2023-11-19T05:14:04;0.65;;;0.40;;
7295;SDS011;40758;54.038;11.684;2023-11-19T05:16:32;0.60;;;0.45;;
7295;SDS011;40758;54.038;11.684;2023-11-19T05:18:59;0.93;;;0.93;;
7295;SDS011;40758;54.038;11.684;2023-11-19T05:21:26;0.47;;;0.20;;
7295;SDS011;40758;54.038;11.684;2023-11-19T05:23:53;0.63;;;0.45;;
7295;SDS011;40758;54.038;11.684;2023-11-19T05:26:21;0.60;;;0.40;;
7295;SDS011;40758;54.038;11.684;2023-11-19T05:31:17;0.80;;;0.70;;
7295;SDS011;40758;54.038;11.684;2023-11-19T05:33:44;0.57;;;0.38;;
7295;SDS011;40758;54.038;11.684;2023-11-19T05:36:12;0.70;;;0.55;;
7295;SDS011;40758;54.038;11.684;2023-11-19T05:38:39;0.70;;;0.50;;
7295;SDS011;40758;54.038;11.684;2023-11-19T05:41:06;0.93;;;0.93;;
7295;SDS011;40758;54.038;11.684;2023-11-19T05:43:33;1.63;;;1.52;;
7295;SDS011;40758;54.038;11.684;2023-11-19T05:46:00;0.90;;;0.82;;
7295;SDS011;40758;54.038;11.684;2023-11-19T05:48:28;0.88;;;0.88;;
7295;SDS011;40758;54.038;11.684;2023-11-19T05:50:55;0.75;;;0.63;;
7295;SDS011;40758;54.038;11.684;2023-11-19T05:53:22;0.70;;;0.60;;
7295;SDS011;40758;54.038;11.684;2023-11-19T05:55:49;0.65;;;0.50;;
7295;SDS011;40758;54.038;11.684;2023-11-19T05:58:25;0.63;;;0.35;;
7295;SDS011;40758;54.038;11.684;2023-11-19T06:00:55;0.98;;;0.95;;
7295;SDS011;40758;54.038;11.684;2023-11-19T06:03:22;0.65;;;0.38;;
7295;SDS011;40758;54.038;11.684;2023-11-19T06:05:49;0.65;;;0.50;;
7295;SDS011;40758;54.038;11.684;2023-11-19T06:08:17;0.73;;;0.45;;
7295;SDS011;40758;54.038;11.684;2023-11-19T06:10:44;0.70;;;0.60;;
7295;SDS011;40758;54.038;11.684;2023-11-19T06:13:13;1.02;;;0.98;;
7295;SDS011;40758;54.038;11.684;2023-11-19T06:15:42;0.52;;;0.52;;
7295;SDS011;40758;54.038;11.684;2023-11-19T06:18:09;0.63;;;0.55;;
7295;SDS011;40758;54.038;11.684;2023-11-19T06:20:38;0.75;;;0.55;;
7295;SDS011;40758;54.038;11.684;2023-11-19T06:23:09;0.75;;;0.47;;
7295;SDS011;40758;54.038;11.684;2023-11-19T06:25:36;0.70;;;0.70;;
7295;SDS011;40758;54.038;11.684;2023-11-19T06:28:03;0.75;;;0.75;;
7295;SDS011;40758;54.038;11.684;2023-11-19T06:30:30;0.70;;;0.60;;
7295;SDS011;40758;54.038;11.684;2023-11-19T06:35:26;0.50;;;0.50;;
7295;SDS011;40758;54.038;11.684;2023-11-19T06:37:53;0.45;;;0.30;;
7295;SDS011;40758;54.038;11.684;2023-11-19T06:40:21;0.52;;;0.38;;
7295;SDS011;40758;54.038;11.684;2023-11-19T06:42:48;0.70;;;0.55;;
7295;SDS011;40758;54.038;11.684;2023-11-19T06:45:14;0.55;;;0.35;;
7295;SDS011;40758;54.038;11.684;2023-11-19T06:47:41;0.65;;;0.52;;
7295;SDS011;40758;54.038;11.684;2023-11-19T06:50:08;0.65;;;0.63;;
7295;SDS011;40758;54.038;11.684;2023-11-19T06:52:35;0.60;;;0.40;;
7295;SDS011;40758;54.038;11.684;2023-11-19T06:55:04;0.90;;;0.88;;
7295;SDS011;40758;54.038;11.684;2023-11-19T06:57:34;0.98;;;0.88;;
7295;SDS011;40758;54.038;11.684;2023-11-19T07:00:02;1.95;;;1.85;;
7295;SDS011;40758;54.038;11.684;2023-11-19T07:02:33;0.80;;;0.60;;
7295;SDS011;40758;54.038;11.684;2023-11-19T07:05:00;0.60;;;0.40;;
7295;SDS011;40758;54.038;11.684;2023-11-19T07:07:27;0.57;;;0.38;;
7295;SDS011;40758;54.038;11.684;2023-11-19T07:09:53;0.70;;;0.55;;
7295;SDS011;40758;54.038;11.684;2023-11-19T07:12:20;0.50;;;0.32;;
7295;SDS011;40758;54.038;11.684;2023-11-19T07:14:47;0.73;;;0.57;;
7295;SDS011;40758;54.038;11.684;2023-11-19T07:17:14;0.80;;;0.60;;
7295;SDS011;40758;54.038;11.684;2023-11-19T07:19:42;0.70;;;0.63;;
7295;SDS011;40758;54.038;11.684;2023-11-19T07:22:10;0.82;;;0.63;;
7295;SDS011;40758;54.038;11.684;2023-11-19T07:24:40;0.70;;;0.50;;
7295;SDS011;40758;54.038;11.684;2023-11-19T07:27:07;0.77;;;0.77;;
7295;SDS011;40758;54.038;11.684;2023-11-19T07:29:35;0.50;;;0.40;;
7295;SDS011;40758;54.038;11.684;2023-11-19T07:32:04;0.63;;;0.43;;
7295;SDS011;40758;54.038;11.684;2023-11-19T07:34:31;1.08;;;1.00;;
7295;SDS011;40758;54.038;11.684;2023-11-19T07:36:58;0.93;;;0.93;;
7295;SDS011;40758;54.038;11.684;2023-11-19T07:39:28;1.15;;;1.05;;
7295;SDS011;40758;54.038;11.684;2023-11-19T07:41:55;1.38;;;1.27;;
7295;SDS011;40758;54.038;11.684;2023-11-19T07:44:22;0.60;;;0.47;;
7295;SDS011;40758;54.038;11.684;2023-11-19T07:46:49;0.73;;;0.63;;
7295;SDS011;40758;54.038;11.684;2023-11-19T07:49:16;0.80;;;0.50;;
7295;SDS011;40758;54.038;11.684;2023-11-19T07:51:43;0.60;;;0.50;;
7295;SDS011;40758;54.038;11.684;2023-11-19T07:54:10;0.63;;;0.55;;
7295;SDS011;40758;54.038;11.684;2023-11-19T07:56:37;0.60;;;0.40;;
7295;SDS011;40758;54.038;11.684;2023-11-19T07:59:04;0.85;;;0.85;;
7295;SDS011;40758;54.038;11.684;2023-11-19T08:01:30;0.70;;;0.52;;
7295;SDS011;40758;54.038;11.684;2023-11-19T08:03:57;0.73;;;0.73;;
7295;SDS011;40758;54.038;11.684;2023-11-19T08:06:25;0.60;;;0.47;;
7295;SDS011;40758;54.038;11.684;2023-11-19T08:08:53;0.63;;;0.50;;
7295;SDS011;40758;54.038;11.684;2023-11-19T08:11:20;0.85;;;0.80;;
7295;SDS011;40758;54.038;11.684;2023-11-19T08:13:48;0.98;;;0.95;;
7295;SDS011;40758;54.038;11.684;2023-11-19T08:16:15;0.63;;;0.50;;
7295;SDS011;40758;54.038;11.684;2023-11-19T08:18:45;0.47;;;0.30;;
7295;SDS011;40758;54.038;11.684;2023-11-19T08:21:12;0.75;;;0.75;;
7295;SDS011;40758;54.038;11.684;2023-11-19T08:23:38;0.65;;;0.40;;
7295;SDS011;40758;54.038;11.684;2023-11-19T08:26:06;0.80;;;0.70;;
7295;SDS011;40758;54.038;11.684;2023-11-19T08:28:33;0.70;;;0.50;;
7295;SDS011;40758;54.038;11.684;2023-11-19T08:33:30;0.77;;;0.57;;
7295;SDS011;40758;54.038;11.684;2023-11-19T08:35:57;0.50;;;0.40;;
7295;SDS011;40758;54.038;11.684;2023-11-19T08:38:25;0.70;;;0.70;;
7295;SDS011;40758;54.038;11.684;2023-11-19T08:40:54;0.70;;;0.50;;
7295;SDS011;40758;54.038;11.684;2023-11-19T08:43:26;0.60;;;0.35;;
7295;SDS011;40758;54.038;11.684;2023-11-19T08:45:53;1.10;;;1.08;;
7295;SDS011;40758;54.038;11.684;2023-11-19T08:48:20;0.55;;;0.30;;
7295;SDS011;40758;54.038;11.684;2023-11-19T08:50:47;0.75;;;0.75;;
7295;SDS011;40758;54.038;11.684;2023-11-19T08:53:14;0.75;;;0.50;;
7295;SDS011;40758;54.038;11.684;2023-11-19T08:55:41;0.98;;;0.93;;
7295;SDS011;40758;54.038;11.684;2023-11-19T08:58:08;0.63;;;0.45;;
7295;SDS011;40758;54.038;11.684;2023-11-19T09:00:35;0.70;;;0.50;;
7295;SDS011;40758;54.038;11.684;2023-11-19T09:03:02;1.38;;;1.27;;
7295;SDS011;40758;54.038;11.684;2023-11-19T09:05:30;0.65;;;0.50;;
7295;SDS011;40758;54.038;11.684;2023-11-19T09:07:57;0.68;;;0.50;;
7295;SDS011;40758;54.038;11.684;2023-11-19T09:10:24;0.73;;;0.52;;
7295;SDS011;40758;54.038;11.684;2023-11-19T09:12:50;0.63;;;0.40;;
7295;SDS011;40758;54.038;11.684;2023-11-19T09:15:18;0.52;;;0.32;;
7295;SDS011;40758;54.038;11.684;2023-11-19T09:17:45;0.75;;;0.50;;
7295;SDS011;40758;54.038;11.684;2023-11-19T09:20:12;0.73;;;0.52;;
7295;SDS011;40758;54.038;11.684;2023-11-19T09:22:42;0.50;;;0.32;;
7295;SDS011;40758;54.038;11.684;2023-11-19T09:25:09;0.70;;;0.55;;
7295;SDS011;40758;54.038;11.684;2023-11-19T09:27:38;0.75;;;0.65;;
7295;SDS011;40758;54.038;11.684;2023-11-19T09:30:05;0.50;;;0.30;;
7295;SDS011;40758;54.038;11.684;2023-11-19T09:32:34;0.65;;;0.52;;
7295;SDS011;40758;54.038;11.684;2023-11-19T09:35:01;0.70;;;0.50;;
7295;SDS011;40758;54.038;11.684;2023-11-19T09:37:28;0.90;;;0.88;;
7295;SDS011;40758;54.038;11.684;2023-11-19T09:39:55;0.82;;;0.82;;
7295;SDS011;40758;54.038;11.684;2023-11-19T09:42:23;0.63;;;0.43;;
7295;SDS011;40758;54.038;11.684;2023-11-19T09:44:50;0.60;;;0.30;;
7295;SDS011;40758;54.038;11.684;2023-11-19T09:47:17;0.75;;;0.63;;
7295;SDS011;40758;54.038;11.684;2023-11-19T09:49:46;0.63;;;0.47;;
7295;SDS011;40758;54.038;11.684;2023-11-19T09:52:14;0.52;;;0.30;;
7295;SDS011;40758;54.038;11.684;2023-11-19T09:54:40;0.65;;;0.43;;
7295;SDS011;40758;54.038;11.684;2023-11-19T09:57:07;0.77;;;0.52;;
7295;SDS011;40758;54.038;11.684;2023-11-19T10:02:03;0.85;;;0.85;;
7295;SDS011;40758;54.038;11.684;2023-11-19T10:04:34;0.75;;;0.60;;
7295;SDS011;40758;54.038;11.684;2023-11-19T10:07:02;0.85;;;0.75;;
7295;SDS011;40758;54.038;11.684;2023-11-19T10:09:30;0.70;;;0.52;;
7295;SDS011;40758;54.038;11.684;2023-11-19T10:11:57;1.15;;;1.05;;
7295;SDS011;40758;54.038;11.684;2023-11-19T10:14:24;0.82;;;0.82;;
7295;SDS011;40758;54.038;11.684;2023-11-19T10:16:50;0.75;;;0.47;;
7295;SDS011;40758;54.038;11.684;2023-11-19T10:19:20;1.02;;;0.93;;
7295;SDS011;40758;54.038;11.684;2023-11-19T10:21:47;0.68;;;0.50;;
7295;SDS011;40758;54.038;11.684;2023-11-19T10:24:14;0.73;;;0.55;;
7295;SDS011;40758;54.038;11.684;2023-11-19T10:26:59;0.65;;;0.40;;
7295;SDS011;40758;54.038;11.684;2023-11-19T10:29:27;0.77;;;0.75;;
7295;SDS011;40758;54.038;11.684;2023-11-19T10:31:56;0.80;;;0.52;;
7295;SDS011;40758;54.038;11.684;2023-11-19T10:34:43;0.63;;;0.57;;
7295;SDS011;40758;54.038;11.684;2023-11-19T10:37:26;0.70;;;0.40;;
7295;SDS011;40758;54.038;11.684;2023-11-19T10:39:56;1.60;;;1.50;;
7295;SDS011;40758;54.038;11.684;2023-11-19T10:42:23;0.60;;;0.40;;
7295;SDS011;40758;54.038;11.684;2023-11-19T10:44:49;1.25;;;1.15;;
7295;SDS011;40758;54.038;11.684;2023-11-19T10:47:18;0.57;;;0.40;;
7295;SDS011;40758;54.038;11.684;2023-11-19T10:50:02;1.23;;;0.82;;
7295;SDS011;40758;54.038;11.684;2023-11-19T10:52:29;0.73;;;0.70;;
7295;SDS011;40758;54.038;11.684;2023-11-19T10:54:56;1.17;;;1.08;;
7295;SDS011;40758;54.038;11.684;2023-11-19T10:57:27;0.73;;;0.52;;
7295;SDS011;40758;54.038;11.684;2023-11-19T11:00:00;0.55;;;0.50;;
7295;SDS011;40758;54.038;11.684;2023-11-19T11:02:31;1.00;;;0.82;;
7295;SDS011;40758;54.038;11.684;2023-11-19T11:05:05;0.65;;;0.50;;
7295;SDS011;40758;54.038;11.684;2023-11-19T11:07:32;0.63;;;0.52;;
7295;SDS011;40758;54.038;11.684;2023-11-19T11:10:07;0.68;;;0.45;;
7295;SDS011;40758;54.038;11.684;2023-11-19T11:12:36;1.65;;;1.55;;
7295;SDS011;40758;54.038;11.684;2023-11-19T11:15:08;0.85;;;0.85;;
7295;SDS011;40758;54.038;11.684;2023-11-19T11:17:40;0.60;;;0.40;;
7295;SDS011;40758;54.038;11.684;2023-11-19T11:22:43;0.90;;;0.77;;
7295;SDS011;40758;54.038;11.684;2023-11-19T11:28:18;0.70;;;0.50;;
7295;SDS011;40758;54.038;11.684;2023-11-19T11:36:31;6.43;;;2.15;;
7295;SDS011;40758;54.038;11.684;2023-11-19T11:39:02;4.30;;;1.67;;
7295;SDS011;40758;54.038;11.684;2023-11-19T11:41:34;4.88;;;1.13;;
7295;SDS011;40758;54.038;11.684;2023-11-19T11:44:01;4.63;;;1.33;;
7295;SDS011;40758;54.038;11.684;2023-11-19T11:48:59;3.20;;;1.35;;
7295;SDS011;40758;54.038;11.684;2023-11-19T11:57:08;8.93;;;1.02;;
7295;SDS011;40758;54.038;11.684;2023-11-19T12:02:11;3.90;;;1.35;;
7295;SDS011;40758;54.038;11.684;2023-11-19T12:04:41;5.85;;;1.15;;
7295;SDS011;40758;54.038;11.684;2023-11-19T12:07:13;11.63;;;1.27;;
7295;SDS011;40758;54.038;11.684;2023-11-19T12:10:28;6.82;;;1.77;;
7295;SDS011;40758;54.038;11.684;2023-11-19T12:12:35;6.70;;;1.70;;
7295;SDS011;40758;54.038;11.684;2023-11-19T12:15:05;4.85;;;1.13;;
7295;SDS011;40758;54.038;11.684;2023-11-19T12:17:37;3.08;;;1.25;;
7295;SDS011;40758;54.038;11.684;2023-11-19T12:20:07;4.25;;;1.38;;
7295;SDS011;40758;54.038;11.684;2023-11-19T12:22:36;5.85;;;1.30;;
7295;SDS011;40758;54.038;11.684;2023-11-19T12:25:08;7.70;;;1.08;;
7295;SDS011;40758;54.038;11.684;2023-11-19T12:27:45;6.57;;;1.42;;
7295;SDS011;40758;54.038;11.684;2023-11-19T12:30:17;11.43;;;0.77;;
7295;SDS011;40758;54.038;11.684;2023-11-19T12:32:47;6.03;;;1.65;;
7295;SDS011;40758;54.038;11.684;2023-11-19T12:35:15;5.30;;;2.17;;
7295;SDS011;40758;54.038;11.684;2023-11-19T12:37:46;9.35;;;1.75;;
7295;SDS011;40758;54.038;11.684;2023-11-19T12:40:16;5.40;;;1.30;;
7295;SDS011;40758;54.038;11.684;2023-11-19T12:42:46;7.70;;;1.58;;
7295;SDS011;40758;54.038;11.684;2023-11-19T12:45:17;6.53;;;1.55;;
7295;SDS011;40758;54.038;11.684;2023-11-19T12:47:45;6.95;;;1.48;;
7295;SDS011;40758;54.038;11.684;2023-11-19T12:50:18;3.28;;;1.20;;
7295;SDS011;40758;54.038;11.684;2023-11-19T12:52:58;4.22;;;1.05;;
7295;SDS011;40758;54.038;11.684;2023-11-19T12:55:29;3.33;;;0.88;;
7295;SDS011;40758;54.038;11.684;2023-11-19T12:57:58;6.63;;;2.13;;
7295;SDS011;40758;54.038;11.684;2023-11-19T13:00:26;4.55;;;1.10;;
7295;SDS011;40758;54.038;11.684;2023-11-19T13:02:54;7.75;;;1.35;;
7295;SDS011;40758;54.038;11.684;2023-11-19T13:05:25;7.18;;;1.80;;
7295;SDS011;40758;54.038;11.684;2023-11-19T13:10:29;5.55;;;0.80;;
7295;SDS011;40758;54.038;11.684;2023-11-19T13:13:02;6.05;;;0.85;;
7295;SDS011;40758;54.038;11.684;2023-11-19T13:15:32;6.82;;;1.02;;
7295;SDS011;40758;54.038;11.684;2023-11-19T13:17:59;5.82;;;1.55;;
7295;SDS011;40758;54.038;11.684;2023-11-19T13:20:27;5.25;;;1.15;;
7295;SDS011;40758;54.038;11.684;2023-11-19T13:23:00;3.95;;;1.25;;
7295;SDS011;40758;54.038;11.684;2023-11-19T13:25:28;8.65;;;1.60;;
7295;SDS011;40758;54.038;11.684;2023-11-19T13:27:56;5.53;;;1.88;;
7295;SDS011;40758;54.038;11.684;2023-11-19T13:30:25;5.63;;;1.25;;
7295;SDS011;40758;54.038;11.684;2023-11-19T13:32:54;6.45;;;1.02;;
7295;SDS011;40758;54.038;11.684;2023-11-19T13:35:23;4.28;;;1.48;;
7295;SDS011;40758;54.038;11.684;2023-11-19T13:37:50;6.25;;;1.65;;
7295;SDS011;40758;54.038;11.684;2023-11-19T13:40:18;3.58;;;1.27;;
7295;SDS011;40758;54.038;11.684;2023-11-19T13:42:46;2.95;;;0.52;;
7295;SDS011;40758;54.038;11.684;2023-11-19T13:45:13;6.32;;;1.73;;
7295;SDS011;40758;54.038;11.684;2023-11-19T13:47:41;4.80;;;1.13;;
7295;SDS011;40758;54.038;11.684;2023-11-19T13:50:12;6.55;;;1.88;;
7295;SDS011;40758;54.038;11.684;2023-11-19T13:52:43;7.78;;;1.38;;
7295;SDS011;40758;54.038;11.684;2023-11-19T13:55:12;4.93;;;1.30;;
7295;SDS011;40758;54.038;11.684;2023-11-19T13:57:40;5.82;;;1.63;;
7295;SDS011;40758;54.038;11.684;2023-11-19T14:00:09;7.10;;;0.85;;
7295;SDS011;40758;54.038;11.684;2023-11-19T14:02:49;5.72;;;1.80;;
7295;SDS011;40758;54.038;11.684;2023-11-19T14:05:17;7.05;;;0.88;;
7295;SDS011;40758;54.038;11.684;2023-11-19T14:08:05;9.73;;;2.10;;
7295;SDS011;40758;54.038;11.684;2023-11-19T14:10:50;10.23;;;1.52;;
7295;SDS011;40758;54.038;11.684;2023-11-19T14:13:18;9.23;;;1.95;;
7295;SDS011;40758;54.038;11.684;2023-11-19T14:15:45;9.60;;;1.80;;
7295;SDS011;40758;54.038;11.684;2023-11-19T14:18:15;3.85;;;0.80;;
7295;SDS011;40758;54.038;11.684;2023-11-19T14:20:42;5.68;;;1.13;;
7295;SDS011;40758;54.038;11.684;2023-11-19T14:23:10;9.95;;;2.40;;
7295;SDS011;40758;54.038;11.684;2023-11-19T14:25:37;5.97;;;1.05;;
7295;SDS011;40758;54.038;11.684;2023-11-19T14:28:04;9.38;;;1.25;;
7295;SDS011;40758;54.038;11.684;2023-11-19T14:30:32;6.50;;;1.08;;
7295;SDS011;40758;54.038;11.684;2023-11-19T14:33:01;2.95;;;1.00;;
7295;SDS011;40758;54.038;11.684;2023-11-19T14:35:28;7.78;;;2.40;;
7295;SDS011;40758;54.038;11.684;2023-11-19T14:37:57;7.10;;;1.75;;
7295;SDS011;40758;54.038;11.684;2023-11-19T14:40:23;8.52;;;1.25;;
7295;SDS011;40758;54.038;11.684;2023-11-19T14:43:08;7.03;;;2.03;;
7295;SDS011;40758;54.038;11.684;2023-11-19T14:45:38;6.55;;;1.88;;
7295;SDS011;40758;54.038;11.684;2023-11-19T14:48:16;2.97;;;1.00;;
7295;SDS011;40758;54.038;11.684;2023-11-19T14:50:46;5.50;;;1.40;;
7295;SDS011;40758;54.038;11.684;2023-11-19T14:53:13;3.55;;;1.48;;
7295;SDS011;40758;54.038;11.684;2023-11-19T14:55:41;10.68;;;2.05;;
7295;SDS011;40758;54.038;11.684;2023-11-19T14:58:07;3.28;;;1.35;;
7295;SDS011;40758;54.038;11.684;2023-11-19T15:00:38;5.50;;;1.80;;
7295;SDS011;40758;54.038;11.684;2023-11-19T15:03:04;7.05;;;2.10;;
7295;SDS011;40758;54.038;11.684;2023-11-19T15:05:35;5.40;;;1.73;;
7295;SDS011;40758;54.038;11.684;2023-11-19T15:08:01;7.25;;;2.15;;
7295;SDS011;40758;54.038;11.684;2023-11-19T15:10:29;8.35;;;2.70;;
7295;SDS011;40758;54.038;11.684;2023-11-19T15:12:56;3.85;;;1.52;;
7295;SDS011;40758;54.038;11.684;2023-11-19T15:15:24;5.70;;;1.75;;
7295;SDS011;40758;54.038;11.684;2023-11-19T15:17:53;11.35;;;2.50;;
7295;SDS011;40758;54.038;11.684;2023-11-19T15:20:20;3.75;;;1.33;;
7295;SDS011;40758;54.038;11.684;2023-11-19T15:22:48;6.72;;;1.42;;
7295;SDS011;40758;54.038;11.684;2023-11-19T15:25:15;5.60;;;2.10;;
7295;SDS011;40758;54.038;11.684;2023-11-19T15:27:41;6.90;;;2.40;;
7295;SDS011;40758;54.038;11.684;2023-11-19T15:30:08;8.48;;;2.03;;
7295;SDS011;40758;54.038;11.684;2023-11-19T15:32:36;6.00;;;1.95;;
7295;SDS011;40758;54.038;11.684;2023-11-19T15:35:04;15.95;;;3.50;;
7295;SDS011;40758;54.038;11.684;2023-11-19T15:37:34;10.20;;;2.58;;